ADDS METAR Data INFO
IDs: Format: Raw Decoded Include TAF

Data at: 2025 UTC 20 Jul 2018

KMBO 202015Z AUTO 00000KT 10SM CLR 30/28 A2994 RMK AO2 LTG DSNT NE AND E PWINO
KMBO 201955Z AUTO 00000KT 10SM SCT003 SCT007 27/27 A2995 RMK AO2 LTG DSNT N NE AND S PWINO
KMBO 201935Z AUTO 00000KT 1 1/2SM SCT002 BKN007 BKN039 26/23 A2995 RMK AO2 VIS 1/4V5 LTG DSNT N PWINO
KMBO 201915Z AUTO 36006KT 10SM CLR 32/25 A2996 RMK AO2 LTG DSNT N PWINO
KMBO 201855Z AUTO 33006KT 10SM CLR 33/25 A2995 RMK AO2 LTG DSNT N PWINO
KMBO 201835Z AUTO 31006KT 10SM CLR 33/26 A2995 RMK AO2 LTG DSNT N PWINO
KMBO 201815Z AUTO 28004KT 10SM CLR 33/26 A2995 RMK AO2 PWINO
KMBO 201755Z AUTO 33005KT 10SM CLR 32/25 A2995 RMK AO2 PWINO
KMBO 201735Z AUTO 00000KT 10SM CLR 32/26 A2996 RMK AO2 PWINO
KMBO 201715Z AUTO 24007KT 10SM CLR 32/25 A2996 RMK AO2 LTG DSNT S PWINO
KMBO 201655Z AUTO 26005KT 10SM CLR 32/25 A2997 RMK AO2 PWINO
KMBO 201635Z AUTO 32005KT 10SM CLR 32/25 A2996 RMK AO2 PWINO
KMBO 201615Z AUTO 31004KT 10SM CLR 31/25 A2996 RMK AO2 PWINO
KMBO 201555Z AUTO 29005KT 10SM CLR 31/25 A2996 RMK AO2 PWINO
KMBO 201535Z AUTO 27005KT 10SM CLR 31/25 A2996 RMK AO2 PWINO
KMBO 201515Z AUTO 27006KT 10SM CLR 31/25 A2996 RMK AO2 PWINO
KMBO 201455Z AUTO 25005KT 10SM CLR 30/26 A2996 RMK AO2 PWINO
KMBO 201435Z AUTO 22006KT 10SM CLR 29/25 A2996 RMK AO2 PWINO
KMBO 201415Z AUTO 23006KT 10SM CLR 28/26 A2996 RMK AO2 PWINO
KMBO 201355Z AUTO 24004KT 10SM CLR 28/25 A2996 RMK AO2 PWINO
KMBO 201335Z AUTO 24004KT 10SM CLR 27/25 A2996 RMK AO2 PWINO
KMBO 201315Z AUTO 00000KT 10SM CLR 26/25 A2996 RMK AO2 PWINO
KMBO 201255Z AUTO 18003KT 10SM CLR 25/25 A2995 RMK AO2 PWINO
KMBO 201235Z AUTO 00000KT 10SM CLR 25/23 A2995 RMK AO2 PWINO
KMBO 201215Z AUTO 00000KT 10SM CLR 23/23 A2995 RMK AO2 PWINO
KMBO 201155Z AUTO 00000KT 10SM CLR 22/22 A2994 RMK AO2 PWINO
KMBO 201135Z AUTO 00000KT 10SM CLR 22/22 A2993 RMK AO2 PWINO
KMBO 201115Z AUTO 00000KT 10SM CLR 22/22 A2993 RMK AO2 PWINO
KMBO 201055Z AUTO 00000KT 10SM CLR 22/22 A2992 RMK AO2 PWINO
KMBO 201035Z AUTO 00000KT 10SM CLR 22/22 A2992 RMK AO2 PWINO
KMBO 201015Z AUTO 00000KT 10SM CLR 22/22 A2991 RMK AO2 PWINO
KMBO 200955Z AUTO 00000KT 10SM CLR 22/22 A2991 RMK AO2 PWINO
KMBO 200935Z AUTO 10003KT 10SM CLR 22/22 A2990 RMK AO2 PWINO
KMBO 200915Z AUTO 00000KT 10SM CLR 22/22 A2989 RMK AO2 PWINO
KMBO 200855Z AUTO 00000KT 10SM CLR 23/22 A2988 RMK AO2 PWINO
KMBO 200835Z AUTO 23003KT 10SM CLR 23/22 A2987 RMK AO2 PWINO
KMBO 200815Z AUTO 00000KT 10SM CLR 23/22 A2988 RMK AO2 PWINO
KMBO 200755Z AUTO 00000KT 10SM TS SCT001 SCT030 SCT038 25/22 A2990 RMK AO2 LTG DSNT E THRU SW
KMBO 200735Z AUTO 28004KT 10SM TS SCT001 SCT023 BKN050 26/23 A2992 RMK AO2 LTG DSNT ALQS
KMBO 200715Z AUTO 27003KT 10SM VCTS SCT050 SCT075 26/24 A2994 RMK AO2 LTG DSNT NW THRU NE
KMBO 200655Z AUTO 00000KT 10SM CLR 25/24 A2992 RMK AO2 LTG DSNT NW THRU NE PWINO
KMBO 200635Z AUTO 00000KT 10SM CLR 25/24 A2991 RMK AO2 LTG DSNT N AND NW PWINO
KMBO 200615Z AUTO 00000KT 10SM CLR 25/24 A2992 RMK AO2 LTG DSNT NW THRU NE PWINO
KMBO 200555Z AUTO 00000KT 10SM CLR 25/24 A2991 RMK AO2 LTG DSNT NW THRU NE PWINO
KMBO 200535Z AUTO 00000KT 10SM CLR 26/24 A2993 RMK AO2 LTG DSNT NW PWINO
KMBO 200515Z AUTO 00000KT 10SM CLR 26/23 A2992 RMK AO2 PWINO
KMBO 200455Z AUTO 00000KT 10SM CLR 26/23 A2992 RMK AO2 PWINO
KMBO 200435Z AUTO 00000KT 10SM CLR 26/24 A2994 RMK AO2 PWINO
KMBO 200415Z AUTO 00000KT 10SM CLR 26/24 A2994 RMK AO2 PWINO
KMBO 200355Z AUTO 00000KT 10SM CLR 26/25 A2993 RMK AO2 LTG DSNT N PWINO
KMBO 200335Z AUTO 14004KT 10SM CLR 26/25 A2992 RMK AO2 LTG DSNT N PWINO
KMBO 200315Z AUTO 00000KT 10SM CLR 26/26 A2992 RMK AO2 PWINO
KMBO 200255Z AUTO 00000KT 10SM CLR 26/26 A2992 RMK AO2 PWINO
KMBO 200235Z AUTO 00000KT 10SM CLR 27/26 A2990 RMK AO2 PWINO
KMBO 200215Z AUTO 00000KT 10SM CLR 27/26 A2990 RMK AO2 PWINO
KMBO 200155Z AUTO 14003KT 10SM CLR 27/26 A2989 RMK AO2 PWINO
KMBO 200135Z AUTO 00000KT 10SM CLR 27/26 A2989 RMK AO2 PWINO
KMBO 200115Z AUTO 00000KT 10SM CLR 27/26 A2988 RMK AO2 PWINO
KMBO 200055Z AUTO 00000KT 10SM CLR 28/26 A2988 RMK AO2 PWINO
KMBO 200035Z AUTO 00000KT 10SM CLR 28/27 A2988 RMK AO2 PWINO
KMBO 200015Z AUTO 00000KT 10SM CLR 30/26 A2988 RMK AO2 PWINO
KMBO 192355Z AUTO 23004KT 10SM CLR 31/23 A2987 RMK AO2 PWINO
KMBO 192335Z AUTO 00000KT 10SM CLR 32/23 A2987 RMK AO2 LTG DSNT SE PWINO
KMBO 192315Z AUTO 23004KT 10SM CLR 32/23 A2987 RMK AO2 LTG DSNT SE PWINO
KMBO 192255Z AUTO 00000KT 10SM CLR 32/23 A2988 RMK AO2 PWINO
KMBO 192235Z AUTO 27004KT 10SM CLR 32/22 A2988 RMK AO2 PWINO
KMBO 192215Z AUTO 30004KT 10SM CLR 32/23 A2988 RMK AO2 PWINO
KMBO 192155Z AUTO 27003KT 10SM CLR 32/22 A2989 RMK AO2 PWINO
KMBO 192135Z AUTO 28003KT 10SM CLR 33/22 A2990 RMK AO2 PWINO
KMBO 192115Z AUTO 24003KT 10SM CLR 33/22 A2990 RMK AO2 PWINO
KMBO 192055Z AUTO 27004KT 10SM CLR 32/21 A2991 RMK AO2 PWINO
KMBO 192035Z AUTO 30005KT 10SM CLR 32/23 A2991 RMK AO2 LTG DSNT SE PWINO
KMBO 192015Z AUTO 29004KT 10SM CLR 32/22 A2992 RMK AO2 LTG DSNT E PWINO
KMBO 191955Z AUTO 33006KT 10SM SCT045 32/22 A2992 RMK AO2 LTG DSNT E PWINO
KMBO 191935Z AUTO 00000KT 10SM 32/23 A2992 RMK AO2 LTG DSNT SE PWINO
KMBO 191915Z AUTO 00000KT 10SM 32/22 A2992 RMK AO2 LTG DSNT E PWINO
KMBO 191855Z AUTO 26004KT 10SM 32/23 A2992 RMK AO2 PWINO
KMBO 191835Z AUTO 28003KT 10SM 32/22 A2993 RMK AO2 LTG DSNT SE PWINO
KMBO 191815Z AUTO 23003KT 10SM CLR 32/23 A2993 RMK AO2 PWINO
KMBO 191755Z AUTO 29003KT 10SM CLR 32/23 A2994 RMK AO2 PWINO
KMBO 191735Z AUTO 00000KT 10SM CLR 31/23 A2994 RMK AO2 PWINO
KMBO 191715Z AUTO 33004KT 10SM CLR 31/23 A2995 RMK AO2 PWINO
KMBO 191655Z AUTO 00000KT 10SM CLR 31/23 A2995 RMK AO2 PWINO
KMBO 191635Z AUTO 00000KT 10SM CLR 30/23 A2995 RMK AO2 PWINO
KMBO 191615Z AUTO 28003KT 10SM CLR 30/23 A2996 RMK AO2 PWINO
KMBO 191555Z AUTO 00000KT 10SM CLR 30/25 A2995 RMK AO2 PWINO
KMBO 191535Z AUTO 00000KT 10SM CLR 29/25 A2996 RMK AO2 PWINO
KMBO 191515Z AUTO 00000KT 10SM CLR 28/25 A2996 RMK AO2 LTG DSNT E PWINO
KMBO 191455Z AUTO 25003KT 10SM CLR 28/25 A2996 RMK AO2 LTG DSNT E PWINO
KMBO 191435Z AUTO 00000KT 10SM CLR 27/25 A2997 RMK AO2 LTG DSNT NE PWINO
KMBO 191415Z AUTO 00000KT 10SM CLR 27/25 A2997 RMK AO2 PWINO
KMBO 191355Z AUTO 00000KT 10SM CLR 26/25 A2998 RMK AO2 PWINO
KMBO 191335Z AUTO 00000KT 10SM SCT003 SCT050 25/25 A2997 RMK AO2 LTG DSNT NE PWINO
KMBO 191315Z AUTO 00000KT 10SM SCT003 24/24 A2998 RMK AO2 PWINO
KMBO 191255Z AUTO 00000KT 10SM OVC003 23/23 A2997 RMK AO2 PWINO
KMBO 191235Z AUTO 00000KT 7SM OVC001 23/23 A2997 RMK AO2 PWINO
KMBO 191215Z AUTO 00000KT 5SM OVC001 22/22 A2996 RMK AO2 LTG DSNT NE PWINO
KMBO 191155Z AUTO 00000KT 4SM OVC001 22/22 A2996 RMK AO2 PWINO
KMBO 191135Z AUTO 00000KT 7SM BKN001 22/22 A2995 RMK AO2 PWINO
KMBO 191115Z AUTO 00000KT 5SM SCT001 22/22 A2995 RMK AO2 LTG DSNT NE PWINO
KMBO 191055Z AUTO 00000KT 7SM SCT001 22/22 A2995 RMK AO2 PWINO
KMBO 191035Z AUTO 00000KT 5SM CLR 22/22 A2995 RMK AO2 PWINO
KMBO 191015Z AUTO 00000KT 5SM CLR 22/22 A2995 RMK AO2 PWINO
KMBO 190955Z AUTO 00000KT 7SM CLR 22/22 A2994 RMK AO2 PWINO
KMBO 190935Z AUTO 00000KT 7SM CLR 22/22 A2994 RMK AO2 PWINO
KMBO 190915Z AUTO 00000KT 10SM CLR 22/22 A2993 RMK AO2 PWINO
KMBO 190855Z AUTO 00000KT 7SM CLR 22/22 A2993 RMK AO2 PWINO
KMBO 190835Z AUTO 00000KT 5SM CLR 22/22 A2992 RMK AO2 PWINO